Sommer S — WDG3830 — position and weather

sailwx.info

Track history (hours):
 
Tides and Currents Weather Stations Pressure Air Temp Water Temp Dewpoint Dewpoint Depression Visibility Wind Speed Wind Dir Waves Ship Positions

Sommer S

Owner: Shaver Transportation Company, Portland, OR. More information available from US FCC via Universal Licensing System and Coast Guard Vessel Documentation Center.

Last reported at 2015-Mar-31 01:33 UTC. Time now 2015-Mar-31 02:03 UTC.
Position N 45°39' W 122°45'.

Length 25 m.

Type: Tug. MMSI: 367530080.

Date/timePositionNaut miles runAvg speedWind from/ knotsBaromVisibWave heightAir tempDewpointWater temp
2015-Mar-31 01:33N 45°39' W 122°45'1 0.6
2015-Mar-31 00:34N 45°39' W 122°45'1 0.6
2015-Mar-30 23:33N 45°39' W 122°45'0 0.0
2015-Mar-30 22:34N 45°39' W 122°45'4 3.6
2015-Mar-30 21:33N 45°36' W 122°46'3 2.9
2015-Mar-30 20:33N 45°34' W 122°44'0 0.0
2015-Mar-30 19:33N 45°34' W 122°44'0 0.0
2015-Mar-30 18:34N 45°34' W 122°44'0 0.0
2015-Mar-30 17:34N 45°34' W 122°44'0 0.0
2015-Mar-30 16:34N 45°34' W 122°44'0 0.0
2015-Mar-30 15:33N 45°34' W 122°44'0 0.1
2015-Mar-30 14:34N 45°34' W 122°44'0 0.0
2015-Mar-30 13:33N 45°34' W 122°44'0 0.0
2015-Mar-30 12:34N 45°34' W 122°44'0 0.0
2015-Mar-30 11:34N 45°34' W 122°44'0 0.0
2015-Mar-30 10:33N 45°34' W 122°44'0 0.0
2015-Mar-30 09:34N 45°34' W 122°44'0 0.0
2015-Mar-30 08:33N 45°34' W 122°44'0 0.0
2015-Mar-30 07:33N 45°34' W 122°44'5 5.1
2015-Mar-30 06:33N 45°39' W 122°45'0 0.1
2015-Mar-30 05:33N 45°39' W 122°45'1 0.9
2015-Mar-30 04:33N 45°39' W 122°45'0 0.5
2015-Mar-30 03:33N 45°39' W 122°46'3 3.4
2015-Mar-30 02:33N 45°36' W 122°47'1 1.3
2015-Mar-30 01:34N 45°37' W 122°47'0 0.0
2015-Mar-30 00:34N 45°37' W 122°47'5 5.2
2015-Mar-29 23:33N 45°42' W 122°46'7 7.5
2015-Mar-29 22:33N 45°50' W 122°48'8 7.6
2015-Mar-29 21:33N 45°57' W 122°49'8 8.5
2015-Mar-29 20:34N 46°05' W 122°54'3 2.9
2015-Mar-29 19:33N 46°06' W 122°58'0 0.3
2015-Mar-29 18:33N 46°06' W 122°57'0 0.0
2015-Mar-29 17:34N 46°06' W 122°57'0 0.0
2015-Mar-29 16:34N 46°06' W 122°57'0 0.0
2015-Mar-29 15:33N 46°06' W 122°57'0 0.0
2015-Mar-29 14:33N 46°06' W 122°57'0 0.3
2015-Mar-29 13:33N 46°06' W 122°57'1 1.2
2015-Mar-29 12:33N 46°05' W 122°56'0 0.0
2015-Mar-29 11:34N 46°05' W 122°56'0 0.0
2015-Mar-29 10:33N 46°05' W 122°56'0 0.0
2015-Mar-29 09:34N 46°05' W 122°56'0 0.0
2015-Mar-29 08:34N 46°05' W 122°56'0 0.0
2015-Mar-29 07:33N 46°05' W 122°56'0 0.0
2015-Mar-29 06:33N 46°05' W 122°56'0 0.0
2015-Mar-29 05:33N 46°05' W 122°56'0 0.0
2015-Mar-29 04:33N 46°05' W 122°56'0 0.0
2015-Mar-29 03:33N 46°05' W 122°56'0 0.0
2015-Mar-29 02:33N 46°05' W 122°56'0 0.0
2015-Mar-29 01:33N 46°05' W 122°56'0 0.0
2015-Mar-29 00:34N 46°05' W 122°56'0 0.0
2015-Mar-28 23:33N 46°05' W 122°56'0 0.0
2015-Mar-28 22:33N 46°05' W 122°56'0 0.0
2015-Mar-28 21:33N 46°05' W 122°56'0 0.0
2015-Mar-28 20:33N 46°05' W 122°56'1 0.6
2015-Mar-28 19:34N 46°06' W 122°56'0 0.1
2015-Mar-28 18:34N 46°06' W 122°56'0 0.0
2015-Mar-28 17:33N 46°06' W 122°56'0 0.0
2015-Mar-28 16:33N 46°06' W 122°56'0 0.0
2015-Mar-28 15:33N 46°06' W 122°56'0 0.0
2015-Mar-28 14:34N 46°06' W 122°56'0 0.0
2015-Mar-28 13:33N 46°06' W 122°56'0 0.0
2015-Mar-28 12:33N 46°06' W 122°56'0 0.0
2015-Mar-28 11:33N 46°06' W 122°56'0 0.0
2015-Mar-28 10:33N 46°06' W 122°56'0 0.0
2015-Mar-28 09:33N 46°06' W 122°56'0 0.2
2015-Mar-28 08:33N 46°06' W 122°56'0 0.5
2015-Mar-28 07:33N 46°06' W 122°56'1 0.8
2015-Mar-28 06:34N 46°06' W 122°57'1 0.8
2015-Mar-28 05:34N 46°05' W 122°56'0 0.0
2015-Mar-28 04:34N 46°05' W 122°56'1 0.7
2015-Mar-28 03:33N 46°06' W 122°56'0 0.0
2015-Mar-28 02:33N 46°06' W 122°56'0 0.0
2015-Mar-28 01:33N 46°06' W 122°56'0 0.0
2015-Mar-28 00:33N 46°06' W 122°56'0 0.0
2015-Mar-27 23:33N 46°06' W 122°56'0 0.0
2015-Mar-27 22:33N 46°06' W 122°56'0 0.2
2015-Mar-27 21:33N 46°06' W 122°56'0 0.0
2015-Mar-27 20:33N 46°06' W 122°56'0 0.0
2015-Mar-27 19:34N 46°06' W 122°56'1 0.5
2015-Mar-27 18:33N 46°05' W 122°56'0 0.0
2015-Mar-27 17:33N 46°05' W 122°56'0 0.0
2015-Mar-27 16:33N 46°05' W 122°56'0 0.1
2015-Mar-27 15:34N 46°05' W 122°56'8 7.6
2015-Mar-27 14:34N 45°59' W 122°50'2 1.7
2015-Mar-27 13:34N 46°00' W 122°51'6 6.4
2015-Mar-27 12:33N 46°06' W 122°56'3 3.4
2015-Mar-27 11:33N 46°03' W 122°53'2 1.7
2015-Mar-27 10:33N 46°02' W 122°52'5 4.9
2015-Mar-27 09:33N 46°06' W 122°56'8 7.6
2015-Mar-27 08:33N 46°10' W 123°05'7 7.2
2015-Mar-27 07:33N 46°09' W 123°16'6 6.2
2015-Mar-27 06:34N 46°10' W 123°25'6 6.4
2015-Mar-27 05:33N 46°16' W 123°28'7 7.1
2015-Mar-27 04:33N 46°16' W 123°38'8 7.9
2015-Mar-27 03:33N 46°12' W 123°48'2 2.3
2015-Mar-27 02:33N 46°11' W 123°52'0 0.0
2015-Mar-27 01:33N 46°11' W 123°52'2 2.3
2015-Mar-27 00:33N 46°12' W 123°48'8 7.5
2015-Mar-26 23:30N 46°16' W 123°38'  
Track history (hours):
 
Tides and Currents Weather Stations Pressure Air Temp Water Temp Dewpoint Dewpoint Depression Visibility Wind Speed Wind Dir Waves Ship Positions

Sommer S

Owner: Shaver Transportation Company, Portland, OR. More information available from US FCC via Universal Licensing System and Coast Guard Vessel Documentation Center.

Last reported at 2015-Mar-31 01:33 UTC. Time now 2015-Mar-31 02:03 UTC.
Position N 45°39' W 122°45'.

Length 25 m.

Type: Tug. MMSI: 367530080.

Date/timePositionNaut miles runAvg speedWind from/ knotsBaromVisibWave heightAir tempDewpointWater temp
2015-Mar-31 01:33N 45°39' W 122°45'1 0.6
2015-Mar-31 00:34N 45°39' W 122°45'1 0.6
2015-Mar-30 23:33N 45°39' W 122°45'0 0.0
2015-Mar-30 22:34N 45°39' W 122°45'4 3.6
2015-Mar-30 21:33N 45°36' W 122°46'3 2.9
2015-Mar-30 20:33N 45°34' W 122°44'0 0.0
2015-Mar-30 19:33N 45°34' W 122°44'0 0.0
2015-Mar-30 18:34N 45°34' W 122°44'0 0.0
2015-Mar-30 17:34N 45°34' W 122°44'0 0.0
2015-Mar-30 16:34N 45°34' W 122°44'0 0.0
2015-Mar-30 15:33N 45°34' W 122°44'0 0.1
2015-Mar-30 14:34N 45°34' W 122°44'0 0.0
2015-Mar-30 13:33N 45°34' W 122°44'0 0.0
2015-Mar-30 12:34N 45°34' W 122°44'0 0.0
2015-Mar-30 11:34N 45°34' W 122°44'0 0.0
2015-Mar-30 10:33N 45°34' W 122°44'0 0.0
2015-Mar-30 09:34N 45°34' W 122°44'0 0.0
2015-Mar-30 08:33N 45°34' W 122°44'0 0.0
2015-Mar-30 07:33N 45°34' W 122°44'5 5.1
2015-Mar-30 06:33N 45°39' W 122°45'0 0.1
2015-Mar-30 05:33N 45°39' W 122°45'1 0.9
2015-Mar-30 04:33N 45°39' W 122°45'0 0.5
2015-Mar-30 03:33N 45°39' W 122°46'3 3.4
2015-Mar-30 02:33N 45°36' W 122°47'1 1.3
2015-Mar-30 01:34N 45°37' W 122°47'0 0.0
2015-Mar-30 00:34N 45°37' W 122°47'5 5.2
2015-Mar-29 23:33N 45°42' W 122°46'7 7.5
2015-Mar-29 22:33N 45°50' W 122°48'8 7.6
2015-Mar-29 21:33N 45°57' W 122°49'8 8.5
2015-Mar-29 20:34N 46°05' W 122°54'3 2.9
2015-Mar-29 19:33N 46°06' W 122°58'0 0.3
2015-Mar-29 18:33N 46°06' W 122°57'0 0.0
2015-Mar-29 17:34N 46°06' W 122°57'0 0.0
2015-Mar-29 16:34N 46°06' W 122°57'0 0.0
2015-Mar-29 15:33N 46°06' W 122°57'0 0.0
2015-Mar-29 14:33N 46°06' W 122°57'0 0.3
2015-Mar-29 13:33N 46°06' W 122°57'1 1.2
2015-Mar-29 12:33N 46°05' W 122°56'0 0.0
2015-Mar-29 11:34N 46°05' W 122°56'0 0.0
2015-Mar-29 10:33N 46°05' W 122°56'0 0.0
2015-Mar-29 09:34N 46°05' W 122°56'0 0.0
2015-Mar-29 08:34N 46°05' W 122°56'0 0.0
2015-Mar-29 07:33N 46°05' W 122°56'0 0.0
2015-Mar-29 06:33N 46°05' W 122°56'0 0.0
2015-Mar-29 05:33N 46°05' W 122°56'0 0.0
2015-Mar-29 04:33N 46°05' W 122°56'0 0.0
2015-Mar-29 03:33N 46°05' W 122°56'0 0.0
2015-Mar-29 02:33N 46°05' W 122°56'0 0.0
2015-Mar-29 01:33N 46°05' W 122°56'0 0.0
2015-Mar-29 00:34N 46°05' W 122°56'0 0.0
2015-Mar-28 23:33N 46°05' W 122°56'0 0.0
2015-Mar-28 22:33N 46°05' W 122°56'0 0.0
2015-Mar-28 21:33N 46°05' W 122°56'0 0.0
2015-Mar-28 20:33N 46°05' W 122°56'1 0.6
2015-Mar-28 19:34N 46°06' W 122°56'0 0.1
2015-Mar-28 18:34N 46°06' W 122°56'0 0.0
2015-Mar-28 17:33N 46°06' W 122°56'0 0.0
2015-Mar-28 16:33N 46°06' W 122°56'0 0.0
2015-Mar-28 15:33N 46°06' W 122°56'0 0.0
2015-Mar-28 14:34N 46°06' W 122°56'0 0.0
2015-Mar-28 13:33N 46°06' W 122°56'0 0.0
2015-Mar-28 12:33N 46°06' W 122°56'0 0.0
2015-Mar-28 11:33N 46°06' W 122°56'0 0.0
2015-Mar-28 10:33N 46°06' W 122°56'0 0.0
2015-Mar-28 09:33N 46°06' W 122°56'0 0.2
2015-Mar-28 08:33N 46°06' W 122°56'0 0.5
2015-Mar-28 07:33N 46°06' W 122°56'1 0.8
2015-Mar-28 06:34N 46°06' W 122°57'1 0.8
2015-Mar-28 05:34N 46°05' W 122°56'0 0.0
2015-Mar-28 04:34N 46°05' W 122°56'1 0.7
2015-Mar-28 03:33N 46°06' W 122°56'0 0.0
2015-Mar-28 02:33N 46°06' W 122°56'0 0.0
2015-Mar-28 01:33N 46°06' W 122°56'0 0.0
2015-Mar-28 00:33N 46°06' W 122°56'0 0.0
2015-Mar-27 23:33N 46°06' W 122°56'0 0.0
2015-Mar-27 22:33N 46°06' W 122°56'0 0.2
2015-Mar-27 21:33N 46°06' W 122°56'0 0.0
2015-Mar-27 20:33N 46°06' W 122°56'0 0.0
2015-Mar-27 19:34N 46°06' W 122°56'1 0.5
2015-Mar-27 18:33N 46°05' W 122°56'0 0.0
2015-Mar-27 17:33N 46°05' W 122°56'0 0.0
2015-Mar-27 16:33N 46°05' W 122°56'0 0.1
2015-Mar-27 15:34N 46°05' W 122°56'8 7.6
2015-Mar-27 14:34N 45°59' W 122°50'2 1.7
2015-Mar-27 13:34N 46°00' W 122°51'6 6.4
2015-Mar-27 12:33N 46°06' W 122°56'3 3.4
2015-Mar-27 11:33N 46°03' W 122°53'2 1.7
2015-Mar-27 10:33N 46°02' W 122°52'5 4.9
2015-Mar-27 09:33N 46°06' W 122°56'8 7.6
2015-Mar-27 08:33N 46°10' W 123°05'7 7.2
2015-Mar-27 07:33N 46°09' W 123°16'6 6.2
2015-Mar-27 06:34N 46°10' W 123°25'6 6.4
2015-Mar-27 05:33N 46°16' W 123°28'7 7.1
2015-Mar-27 04:33N 46°16' W 123°38'8 7.9
2015-Mar-27 03:33N 46°12' W 123°48'2 2.3
2015-Mar-27 02:33N 46°11' W 123°52'0 0.0
2015-Mar-27 01:33N 46°11' W 123°52'2 2.3
2015-Mar-27 00:33N 46°12' W 123°48'8 7.5
2015-Mar-26 23:30N 46°16' W 123°38'  

Dump ship's entire track history